sensor_id;sensor_type;location;lat;lon;timestamp;P1;durP1;ratioP1;P2;durP2;ratioP2
13032;SDS011;6583;42.632;23.298;2023-03-01T00:01:35;11.50;;;8.73;;
13032;SDS011;6583;42.632;23.298;2023-03-01T00:04:02;12.33;;;10.17;;
13032;SDS011;6583;42.632;23.298;2023-03-01T00:06:29;10.50;;;7.57;;
13032;SDS011;6583;42.632;23.298;2023-03-01T00:08:56;15.03;;;11.30;;
13032;SDS011;6583;42.632;23.298;2023-03-01T00:11:24;14.80;;;11.83;;
13032;SDS011;6583;42.632;23.298;2023-03-01T00:13:55;14.97;;;12.23;;
13032;SDS011;6583;42.632;23.298;2023-03-01T00:16:24;16.90;;;13.70;;
13032;SDS011;6583;42.632;23.298;2023-03-01T00:18:53;18.00;;;14.00;;
13032;SDS011;6583;42.632;23.298;2023-03-01T00:21:20;19.27;;;15.73;;
13032;SDS011;6583;42.632;23.298;2023-03-01T00:23:47;21.43;;;16.10;;
13032;SDS011;6583;42.632;23.298;2023-03-01T00:26:15;18.53;;;14.90;;
13032;SDS011;6583;42.632;23.298;2023-03-01T00:28:45;21.13;;;15.67;;
13032;SDS011;6583;42.632;23.298;2023-03-01T00:31:12;23.37;;;17.50;;
13032;SDS011;6583;42.632;23.298;2023-03-01T00:33:40;19.60;;;14.53;;
13032;SDS011;6583;42.632;23.298;2023-03-01T00:36:08;16.77;;;12.50;;
13032;SDS011;6583;42.632;23.298;2023-03-01T00:38:35;17.50;;;12.57;;
13032;SDS011;6583;42.632;23.298;2023-03-01T00:41:03;17.90;;;12.97;;
13032;SDS011;6583;42.632;23.298;2023-03-01T00:43:30;17.53;;;13.30;;
13032;SDS011;6583;42.632;23.298;2023-03-01T00:46:03;12.57;;;9.37;;
13032;SDS011;6583;42.632;23.298;2023-03-01T00:48:30;14.37;;;11.13;;
13032;SDS011;6583;42.632;23.298;2023-03-01T00:51:03;16.00;;;12.33;;
13032;SDS011;6583;42.632;23.298;2023-03-01T00:53:31;13.30;;;10.57;;
13032;SDS011;6583;42.632;23.298;2023-03-01T00:55:58;12.87;;;9.47;;
13032;SDS011;6583;42.632;23.298;2023-03-01T00:58:25;12.30;;;10.33;;
13032;SDS011;6583;42.632;23.298;2023-03-01T01:00:52;11.27;;;8.93;;
13032;SDS011;6583;42.632;23.298;2023-03-01T01:03:20;10.97;;;8.10;;
13032;SDS011;6583;42.632;23.298;2023-03-01T01:05:47;8.03;;;6.97;;
13032;SDS011;6583;42.632;23.298;2023-03-01T01:08:13;9.20;;;7.27;;
13032;SDS011;6583;42.632;23.298;2023-03-01T01:10:40;6.27;;;5.33;;
13032;SDS011;6583;42.632;23.298;2023-03-01T01:13:09;5.93;;;4.63;;
13032;SDS011;6583;42.632;23.298;2023-03-01T01:15:36;5.50;;;5.00;;
13032;SDS011;6583;42.632;23.298;2023-03-01T01:18:02;6.27;;;5.37;;
13032;SDS011;6583;42.632;23.298;2023-03-01T01:20:31;5.70;;;5.10;;
13032;SDS011;6583;42.632;23.298;2023-03-01T01:22:57;5.73;;;4.90;;
13032;SDS011;6583;42.632;23.298;2023-03-01T01:25:24;6.03;;;4.67;;
13032;SDS011;6583;42.632;23.298;2023-03-01T01:27:52;5.87;;;4.93;;
13032;SDS011;6583;42.632;23.298;2023-03-01T01:30:19;5.57;;;4.97;;
13032;SDS011;6583;42.632;23.298;2023-03-01T01:32:45;5.83;;;4.90;;
13032;SDS011;6583;42.632;23.298;2023-03-01T01:35:12;6.03;;;4.50;;
13032;SDS011;6583;42.632;23.298;2023-03-01T01:37:40;5.43;;;4.57;;
13032;SDS011;6583;42.632;23.298;2023-03-01T01:40:08;5.60;;;5.00;;
13032;SDS011;6583;42.632;23.298;2023-03-01T01:42:36;6.57;;;5.37;;
13032;SDS011;6583;42.632;23.298;2023-03-01T01:45:24;5.20;;;4.70;;
13032;SDS011;6583;42.632;23.298;2023-03-01T01:47:54;4.93;;;4.43;;
13032;SDS011;6583;42.632;23.298;2023-03-01T01:50:23;4.90;;;4.40;;
13032;SDS011;6583;42.632;23.298;2023-03-01T01:52:52;5.20;;;4.50;;
13032;SDS011;6583;42.632;23.298;2023-03-01T01:55:21;4.33;;;3.93;;
13032;SDS011;6583;42.632;23.298;2023-03-01T01:57:52;5.57;;;4.67;;
13032;SDS011;6583;42.632;23.298;2023-03-01T02:00:23;5.00;;;4.20;;
13032;SDS011;6583;42.632;23.298;2023-03-01T02:02:51;4.80;;;4.20;;
13032;SDS011;6583;42.632;23.298;2023-03-01T02:05:25;6.63;;;4.63;;
13032;SDS011;6583;42.632;23.298;2023-03-01T02:08:00;4.40;;;3.60;;
13032;SDS011;6583;42.632;23.298;2023-03-01T02:10:27;5.00;;;4.50;;
13032;SDS011;6583;42.632;23.298;2023-03-01T02:12:54;4.93;;;4.43;;
13032;SDS011;6583;42.632;23.298;2023-03-01T02:15:22;4.97;;;4.53;;
13032;SDS011;6583;42.632;23.298;2023-03-01T02:17:51;5.10;;;4.50;;
13032;SDS011;6583;42.632;23.298;2023-03-01T02:20:20;5.50;;;4.77;;
13032;SDS011;6583;42.632;23.298;2023-03-01T02:22:52;4.90;;;4.40;;
13032;SDS011;6583;42.632;23.298;2023-03-01T02:25:27;4.50;;;4.10;;
13032;SDS011;6583;42.632;23.298;2023-03-01T02:28:03;4.43;;;4.03;;
13032;SDS011;6583;42.632;23.298;2023-03-01T02:30:39;4.97;;;4.40;;
13032;SDS011;6583;42.632;23.298;2023-03-01T02:33:27;4.57;;;4.17;;
13032;SDS011;6583;42.632;23.298;2023-03-01T02:35:54;5.47;;;4.87;;
13032;SDS011;6583;42.632;23.298;2023-03-01T02:38:22;5.30;;;4.80;;
13032;SDS011;6583;42.632;23.298;2023-03-01T02:40:50;4.93;;;4.43;;
13032;SDS011;6583;42.632;23.298;2023-03-01T02:43:17;4.97;;;4.47;;
13032;SDS011;6583;42.632;23.298;2023-03-01T02:45:49;5.13;;;4.50;;
13032;SDS011;6583;42.632;23.298;2023-03-01T02:48:17;5.87;;;5.10;;
13032;SDS011;6583;42.632;23.298;2023-03-01T02:50:47;5.70;;;5.10;;
13032;SDS011;6583;42.632;23.298;2023-03-01T02:53:27;6.53;;;5.90;;
13032;SDS011;6583;42.632;23.298;2023-03-01T02:56:05;6.20;;;5.60;;
13032;SDS011;6583;42.632;23.298;2023-03-01T02:58:38;6.40;;;5.70;;
13032;SDS011;6583;42.632;23.298;2023-03-01T03:01:11;6.10;;;5.50;;
13032;SDS011;6583;42.632;23.298;2023-03-01T03:03:40;6.60;;;5.57;;
13032;SDS011;6583;42.632;23.298;2023-03-01T03:06:07;8.40;;;6.60;;
13032;SDS011;6583;42.632;23.298;2023-03-01T03:08:34;7.53;;;6.63;;
13032;SDS011;6583;42.632;23.298;2023-03-01T03:11:01;7.13;;;6.13;;
13032;SDS011;6583;42.632;23.298;2023-03-01T03:13:28;7.37;;;6.10;;
13032;SDS011;6583;42.632;23.298;2023-03-01T03:15:55;7.20;;;6.00;;
13032;SDS011;6583;42.632;23.298;2023-03-01T03:18:23;7.27;;;6.43;;
13032;SDS011;6583;42.632;23.298;2023-03-01T03:20:51;7.43;;;5.77;;
13032;SDS011;6583;42.632;23.298;2023-03-01T03:23:19;7.07;;;6.17;;
13032;SDS011;6583;42.632;23.298;2023-03-01T03:25:47;7.03;;;6.10;;
13032;SDS011;6583;42.632;23.298;2023-03-01T03:28:15;7.33;;;6.63;;
13032;SDS011;6583;42.632;23.298;2023-03-01T03:30:42;7.03;;;6.33;;
13032;SDS011;6583;42.632;23.298;2023-03-01T03:33:09;7.10;;;5.77;;
13032;SDS011;6583;42.632;23.298;2023-03-01T03:35:39;7.40;;;6.03;;
13032;SDS011;6583;42.632;23.298;2023-03-01T03:38:09;7.37;;;5.97;;
13032;SDS011;6583;42.632;23.298;2023-03-01T03:40:41;6.27;;;5.67;;
13032;SDS011;6583;42.632;23.298;2023-03-01T03:43:10;9.87;;;6.57;;
13032;SDS011;6583;42.632;23.298;2023-03-01T03:45:38;6.70;;;6.00;;
13032;SDS011;6583;42.632;23.298;2023-03-01T03:48:06;7.53;;;5.97;;
13032;SDS011;6583;42.632;23.298;2023-03-01T03:50:35;6.83;;;5.60;;
13032;SDS011;6583;42.632;23.298;2023-03-01T03:53:04;5.83;;;5.00;;
13032;SDS011;6583;42.632;23.298;2023-03-01T03:55:33;7.13;;;5.60;;
13032;SDS011;6583;42.632;23.298;2023-03-01T03:58:01;6.70;;;6.00;;
13032;SDS011;6583;42.632;23.298;2023-03-01T04:00:46;7.80;;;6.57;;
13032;SDS011;6583;42.632;23.298;2023-03-01T04:03:16;8.53;;;7.03;;
13032;SDS011;6583;42.632;23.298;2023-03-01T04:05:45;8.00;;;6.67;;
13032;SDS011;6583;42.632;23.298;2023-03-01T04:08:13;7.53;;;6.30;;
13032;SDS011;6583;42.632;23.298;2023-03-01T04:10:41;8.43;;;6.87;;
13032;SDS011;6583;42.632;23.298;2023-03-01T04:13:10;8.20;;;6.80;;
13032;SDS011;6583;42.632;23.298;2023-03-01T04:15:39;7.13;;;5.00;;
13032;SDS011;6583;42.632;23.298;2023-03-01T04:18:08;9.20;;;7.07;;
13032;SDS011;6583;42.632;23.298;2023-03-01T04:20:38;10.83;;;7.03;;
13032;SDS011;6583;42.632;23.298;2023-03-01T04:23:05;9.57;;;7.13;;
13032;SDS011;6583;42.632;23.298;2023-03-01T04:25:42;8.03;;;6.47;;
13032;SDS011;6583;42.632;23.298;2023-03-01T04:28:14;9.00;;;7.07;;
13032;SDS011;6583;42.632;23.298;2023-03-01T04:30:41;8.40;;;6.63;;
13032;SDS011;6583;42.632;23.298;2023-03-01T04:33:08;8.07;;;6.30;;
13032;SDS011;6583;42.632;23.298;2023-03-01T04:35:36;9.90;;;7.07;;
13032;SDS011;6583;42.632;23.298;2023-03-01T04:38:04;9.37;;;7.17;;
13032;SDS011;6583;42.632;23.298;2023-03-01T04:40:31;9.00;;;6.93;;
13032;SDS011;6583;42.632;23.298;2023-03-01T04:42:59;8.60;;;6.80;;
13032;SDS011;6583;42.632;23.298;2023-03-01T04:45:27;9.57;;;6.77;;
13032;SDS011;6583;42.632;23.298;2023-03-01T04:47:53;9.47;;;6.50;;
13032;SDS011;6583;42.632;23.298;2023-03-01T04:50:23;6.73;;;5.20;;
13032;SDS011;6583;42.632;23.298;2023-03-01T04:52:50;8.57;;;6.67;;
13032;SDS011;6583;42.632;23.298;2023-03-01T04:55:18;10.83;;;7.57;;
13032;SDS011;6583;42.632;23.298;2023-03-01T04:57:45;9.47;;;7.37;;
13032;SDS011;6583;42.632;23.298;2023-03-01T05:00:15;14.17;;;8.97;;
13032;SDS011;6583;42.632;23.298;2023-03-01T05:02:48;10.97;;;6.83;;
13032;SDS011;6583;42.632;23.298;2023-03-01T05:05:18;10.97;;;7.67;;
13032;SDS011;6583;42.632;23.298;2023-03-01T05:07:51;9.20;;;6.83;;
13032;SDS011;6583;42.632;23.298;2023-03-01T05:10:18;8.27;;;6.43;;
13032;SDS011;6583;42.632;23.298;2023-03-01T05:12:45;9.20;;;6.60;;
13032;SDS011;6583;42.632;23.298;2023-03-01T05:15:12;7.97;;;6.23;;
13032;SDS011;6583;42.632;23.298;2023-03-01T05:17:40;10.33;;;7.13;;
13032;SDS011;6583;42.632;23.298;2023-03-01T05:20:07;10.73;;;6.37;;
13032;SDS011;6583;42.632;23.298;2023-03-01T05:22:36;11.90;;;8.20;;
13032;SDS011;6583;42.632;23.298;2023-03-01T05:25:03;9.87;;;7.00;;
13032;SDS011;6583;42.632;23.298;2023-03-01T05:27:30;10.07;;;6.40;;
13032;SDS011;6583;42.632;23.298;2023-03-01T05:29:57;9.53;;;6.20;;
13032;SDS011;6583;42.632;23.298;2023-03-01T05:32:23;9.90;;;6.20;;
13032;SDS011;6583;42.632;23.298;2023-03-01T05:34:51;7.90;;;5.13;;
13032;SDS011;6583;42.632;23.298;2023-03-01T05:37:19;8.33;;;4.13;;
13032;SDS011;6583;42.632;23.298;2023-03-01T05:39:46;4.57;;;2.87;;
13032;SDS011;6583;42.632;23.298;2023-03-01T05:42:15;3.37;;;2.73;;
13032;SDS011;6583;42.632;23.298;2023-03-01T05:44:42;2.80;;;2.30;;
13032;SDS011;6583;42.632;23.298;2023-03-01T05:47:08;2.73;;;1.60;;
13032;SDS011;6583;42.632;23.298;2023-03-01T05:49:35;2.77;;;1.43;;
13032;SDS011;6583;42.632;23.298;2023-03-01T05:52:03;4.17;;;1.70;;
13032;SDS011;6583;42.632;23.298;2023-03-01T05:54:30;2.60;;;1.63;;
13032;SDS011;6583;42.632;23.298;2023-03-01T05:56:57;1.43;;;1.17;;
13032;SDS011;6583;42.632;23.298;2023-03-01T05:59:23;3.30;;;1.57;;
13032;SDS011;6583;42.632;23.298;2023-03-01T06:01:50;2.23;;;1.47;;
13032;SDS011;6583;42.632;23.298;2023-03-01T06:04:16;3.03;;;1.67;;
13032;SDS011;6583;42.632;23.298;2023-03-01T06:06:43;2.07;;;1.60;;
13032;SDS011;6583;42.632;23.298;2023-03-01T06:09:11;4.80;;;1.77;;
13032;SDS011;6583;42.632;23.298;2023-03-01T06:11:38;3.30;;;1.90;;
13032;SDS011;6583;42.632;23.298;2023-03-01T06:14:05;1.40;;;1.30;;
13032;SDS011;6583;42.632;23.298;2023-03-01T06:16:32;1.40;;;1.30;;
13032;SDS011;6583;42.632;23.298;2023-03-01T06:18:59;1.83;;;1.63;;
13032;SDS011;6583;42.632;23.298;2023-03-01T06:21:26;1.77;;;1.50;;
13032;SDS011;6583;42.632;23.298;2023-03-01T06:23:52;2.97;;;2.00;;
13032;SDS011;6583;42.632;23.298;2023-03-01T06:26:20;3.17;;;2.20;;
13032;SDS011;6583;42.632;23.298;2023-03-01T06:28:47;3.43;;;2.37;;
13032;SDS011;6583;42.632;23.298;2023-03-01T06:31:14;3.20;;;2.50;;
13032;SDS011;6583;42.632;23.298;2023-03-01T06:33:41;2.70;;;2.03;;
13032;SDS011;6583;42.632;23.298;2023-03-01T06:36:09;2.73;;;2.20;;
13032;SDS011;6583;42.632;23.298;2023-03-01T06:38:36;4.27;;;2.50;;
13032;SDS011;6583;42.632;23.298;2023-03-01T06:41:03;2.70;;;1.80;;
13032;SDS011;6583;42.632;23.298;2023-03-01T06:43:31;5.80;;;3.23;;
13032;SDS011;6583;42.632;23.298;2023-03-01T06:45:58;6.67;;;3.67;;
13032;SDS011;6583;42.632;23.298;2023-03-01T06:48:25;8.33;;;3.20;;
13032;SDS011;6583;42.632;23.298;2023-03-01T06:50:52;6.40;;;3.33;;
13032;SDS011;6583;42.632;23.298;2023-03-01T06:53:18;4.53;;;2.90;;
13032;SDS011;6583;42.632;23.298;2023-03-01T06:55:45;4.83;;;3.13;;
13032;SDS011;6583;42.632;23.298;2023-03-01T06:58:12;5.93;;;2.87;;
13032;SDS011;6583;42.632;23.298;2023-03-01T07:00:40;6.10;;;3.83;;
13032;SDS011;6583;42.632;23.298;2023-03-01T07:03:08;5.00;;;3.73;;
13032;SDS011;6583;42.632;23.298;2023-03-01T07:05:34;4.30;;;3.30;;
13032;SDS011;6583;42.632;23.298;2023-03-01T07:08:01;4.40;;;3.10;;
13032;SDS011;6583;42.632;23.298;2023-03-01T07:10:28;5.10;;;2.90;;
13032;SDS011;6583;42.632;23.298;2023-03-01T07:12:55;4.03;;;3.20;;
13032;SDS011;6583;42.632;23.298;2023-03-01T07:15:22;5.07;;;3.33;;
13032;SDS011;6583;42.632;23.298;2023-03-01T07:17:50;4.17;;;3.50;;
13032;SDS011;6583;42.632;23.298;2023-03-01T07:20:17;5.07;;;3.57;;
13032;SDS011;6583;42.632;23.298;2023-03-01T07:22:47;4.40;;;3.23;;
13032;SDS011;6583;42.632;23.298;2023-03-01T07:25:14;5.13;;;3.60;;
13032;SDS011;6583;42.632;23.298;2023-03-01T07:27:40;5.33;;;3.67;;
13032;SDS011;6583;42.632;23.298;2023-03-01T07:30:07;7.73;;;3.57;;
13032;SDS011;6583;42.632;23.298;2023-03-01T07:32:35;4.87;;;3.57;;
13032;SDS011;6583;42.632;23.298;2023-03-01T07:35:07;5.23;;;3.30;;
13032;SDS011;6583;42.632;23.298;2023-03-01T07:37:34;3.43;;;2.50;;
13032;SDS011;6583;42.632;23.298;2023-03-01T07:40:00;4.20;;;3.27;;
13032;SDS011;6583;42.632;23.298;2023-03-01T07:42:27;3.83;;;3.00;;
13032;SDS011;6583;42.632;23.298;2023-03-01T07:44:54;2.07;;;1.90;;
13032;SDS011;6583;42.632;23.298;2023-03-01T07:47:21;4.53;;;2.80;;
13032;SDS011;6583;42.632;23.298;2023-03-01T07:49:47;3.20;;;2.67;;
13032;SDS011;6583;42.632;23.298;2023-03-01T07:52:16;2.80;;;2.50;;
13032;SDS011;6583;42.632;23.298;2023-03-01T07:54:43;3.00;;;2.40;;
13032;SDS011;6583;42.632;23.298;2023-03-01T07:57:10;2.50;;;2.30;;
13032;SDS011;6583;42.632;23.298;2023-03-01T07:59:37;2.90;;;2.30;;
13032;SDS011;6583;42.632;23.298;2023-03-01T08:02:04;2.83;;;2.60;;
13032;SDS011;6583;42.632;23.298;2023-03-01T08:04:31;4.43;;;3.00;;
13032;SDS011;6583;42.632;23.298;2023-03-01T08:06:58;3.33;;;2.67;;
13032;SDS011;6583;42.632;23.298;2023-03-01T08:09:26;3.30;;;2.90;;
13032;SDS011;6583;42.632;23.298;2023-03-01T08:11:53;4.30;;;3.30;;
13032;SDS011;6583;42.632;23.298;2023-03-01T08:14:20;3.47;;;2.90;;
13032;SDS011;6583;42.632;23.298;2023-03-01T08:16:48;3.30;;;3.00;;
13032;SDS011;6583;42.632;23.298;2023-03-01T08:19:15;5.47;;;3.20;;
13032;SDS011;6583;42.632;23.298;2023-03-01T08:21:42;3.50;;;3.20;;
13032;SDS011;6583;42.632;23.298;2023-03-01T08:24:09;5.13;;;3.37;;
13032;SDS011;6583;42.632;23.298;2023-03-01T08:26:37;4.43;;;3.90;;
13032;SDS011;6583;42.632;23.298;2023-03-01T08:29:04;4.60;;;3.20;;
13032;SDS011;6583;42.632;23.298;2023-03-01T08:31:32;4.77;;;3.90;;
13032;SDS011;6583;42.632;23.298;2023-03-01T08:34:02;4.93;;;4.23;;
13032;SDS011;6583;42.632;23.298;2023-03-01T08:36:31;6.57;;;4.70;;
13032;SDS011;6583;42.632;23.298;2023-03-01T08:38:59;5.17;;;4.67;;
13032;SDS011;6583;42.632;23.298;2023-03-01T08:41:26;5.23;;;3.93;;
13032;SDS011;6583;42.632;23.298;2023-03-01T08:43:54;4.77;;;3.47;;
13032;SDS011;6583;42.632;23.298;2023-03-01T08:46:24;6.40;;;4.33;;
13032;SDS011;6583;42.632;23.298;2023-03-01T08:48:51;4.80;;;3.80;;
13032;SDS011;6583;42.632;23.298;2023-03-01T08:51:18;6.37;;;4.17;;
13032;SDS011;6583;42.632;23.298;2023-03-01T08:53:46;4.53;;;3.10;;
13032;SDS011;6583;42.632;23.298;2023-03-01T08:56:13;3.73;;;3.20;;
13032;SDS011;6583;42.632;23.298;2023-03-01T08:58:43;4.20;;;3.80;;
13032;SDS011;6583;42.632;23.298;2023-03-01T09:01:12;4.87;;;3.90;;
13032;SDS011;6583;42.632;23.298;2023-03-01T09:03:40;3.80;;;3.30;;
13032;SDS011;6583;42.632;23.298;2023-03-01T09:06:07;4.43;;;3.57;;
13032;SDS011;6583;42.632;23.298;2023-03-01T09:08:35;3.70;;;3.17;;
13032;SDS011;6583;42.632;23.298;2023-03-01T09:11:03;4.07;;;3.33;;
13032;SDS011;6583;42.632;23.298;2023-03-01T09:13:31;5.53;;;3.80;;
13032;SDS011;6583;42.632;23.298;2023-03-01T09:15:58;3.57;;;2.90;;
13032;SDS011;6583;42.632;23.298;2023-03-01T09:18:26;3.50;;;3.20;;
13032;SDS011;6583;42.632;23.298;2023-03-01T09:20:57;3.93;;;3.20;;
13032;SDS011;6583;42.632;23.298;2023-03-01T09:23:27;3.50;;;3.00;;
13032;SDS011;6583;42.632;23.298;2023-03-01T09:25:54;4.50;;;3.57;;
13032;SDS011;6583;42.632;23.298;2023-03-01T09:28:20;4.50;;;3.10;;
13032;SDS011;6583;42.632;23.298;2023-03-01T09:30:48;4.73;;;3.33;;
13032;SDS011;6583;42.632;23.298;2023-03-01T09:33:15;3.63;;;3.17;;
13032;SDS011;6583;42.632;23.298;2023-03-01T09:35:43;3.30;;;2.90;;
13032;SDS011;6583;42.632;23.298;2023-03-01T09:38:12;4.37;;;3.80;;
13032;SDS011;6583;42.632;23.298;2023-03-01T09:40:41;3.87;;;3.43;;
13032;SDS011;6583;42.632;23.298;2023-03-01T09:43:15;4.40;;;3.30;;
13032;SDS011;6583;42.632;23.298;2023-03-01T09:45:48;2.57;;;2.37;;
13032;SDS011;6583;42.632;23.298;2023-03-01T09:48:19;4.03;;;3.40;;
13032;SDS011;6583;42.632;23.298;2023-03-01T09:50:50;4.10;;;3.47;;
13032;SDS011;6583;42.632;23.298;2023-03-01T09:53:18;5.67;;;4.07;;
13032;SDS011;6583;42.632;23.298;2023-03-01T09:55:48;5.73;;;3.60;;
13032;SDS011;6583;42.632;23.298;2023-03-01T09:58:28;5.17;;;3.53;;
13032;SDS011;6583;42.632;23.298;2023-03-01T10:01:02;4.43;;;3.60;;
13032;SDS011;6583;42.632;23.298;2023-03-01T10:03:38;6.23;;;3.90;;
13032;SDS011;6583;42.632;23.298;2023-03-01T10:06:11;5.77;;;3.83;;
13032;SDS011;6583;42.632;23.298;2023-03-01T10:08:42;4.43;;;3.90;;
13032;SDS011;6583;42.632;23.298;2023-03-01T10:11:17;3.87;;;3.23;;
13032;SDS011;6583;42.632;23.298;2023-03-01T10:13:48;5.00;;;4.03;;
13032;SDS011;6583;42.632;23.298;2023-03-01T10:16:22;4.60;;;3.60;;
13032;SDS011;6583;42.632;23.298;2023-03-01T10:18:53;6.33;;;4.80;;
13032;SDS011;6583;42.632;23.298;2023-03-01T10:21:27;4.70;;;3.40;;
13032;SDS011;6583;42.632;23.298;2023-03-01T10:23:56;5.47;;;4.57;;
13032;SDS011;6583;42.632;23.298;2023-03-01T10:26:38;5.00;;;4.30;;
13032;SDS011;6583;42.632;23.298;2023-03-01T10:29:15;5.43;;;4.33;;
13032;SDS011;6583;42.632;23.298;2023-03-01T10:31:42;4.70;;;4.00;;
13032;SDS011;6583;42.632;23.298;2023-03-01T10:34:12;5.67;;;4.30;;
13032;SDS011;6583;42.632;23.298;2023-03-01T10:36:42;4.87;;;4.03;;
13032;SDS011;6583;42.632;23.298;2023-03-01T10:39:12;6.33;;;5.03;;
13032;SDS011;6583;42.632;23.298;2023-03-01T10:44:46;6.20;;;5.03;;
13032;SDS011;6583;42.632;23.298;2023-03-01T10:47:16;5.37;;;3.83;;
13032;SDS011;6583;42.632;23.298;2023-03-01T10:49:53;5.40;;;4.43;;
13032;SDS011;6583;42.632;23.298;2023-03-01T10:52:24;7.17;;;5.33;;
13032;SDS011;6583;42.632;23.298;2023-03-01T10:54:54;6.57;;;5.17;;
13032;SDS011;6583;42.632;23.298;2023-03-01T10:57:37;10.27;;;6.60;;
13032;SDS011;6583;42.632;23.298;2023-03-01T11:00:19;6.83;;;5.37;;
13032;SDS011;6583;42.632;23.298;2023-03-01T11:02:49;6.00;;;4.30;;
13032;SDS011;6583;42.632;23.298;2023-03-01T11:05:19;5.70;;;4.73;;
13032;SDS011;6583;42.632;23.298;2023-03-01T11:07:51;5.10;;;4.50;;
13032;SDS011;6583;42.632;23.298;2023-03-01T11:10:20;6.27;;;5.07;;
13032;SDS011;6583;42.632;23.298;2023-03-01T11:12:48;5.30;;;4.77;;
13032;SDS011;6583;42.632;23.298;2023-03-01T11:15:20;8.37;;;5.40;;
13032;SDS011;6583;42.632;23.298;2023-03-01T11:17:52;6.23;;;5.17;;
13032;SDS011;6583;42.632;23.298;2023-03-01T11:20:24;6.17;;;4.77;;
13032;SDS011;6583;42.632;23.298;2023-03-01T11:22:55;8.37;;;5.53;;
13032;SDS011;6583;42.632;23.298;2023-03-01T11:25:25;6.93;;;4.50;;
13032;SDS011;6583;42.632;23.298;2023-03-01T11:27:55;6.63;;;5.30;;
13032;SDS011;6583;42.632;23.298;2023-03-01T11:30:24;7.40;;;5.73;;
13032;SDS011;6583;42.632;23.298;2023-03-01T11:32:58;7.70;;;5.60;;
13032;SDS011;6583;42.632;23.298;2023-03-01T11:35:35;7.40;;;5.83;;
13032;SDS011;6583;42.632;23.298;2023-03-01T11:38:13;5.77;;;4.87;;
13032;SDS011;6583;42.632;23.298;2023-03-01T11:40:46;8.37;;;5.93;;
13032;SDS011;6583;42.632;23.298;2023-03-01T11:43:26;6.10;;;4.70;;
13032;SDS011;6583;42.632;23.298;2023-03-01T11:49:12;6.67;;;5.17;;
13032;SDS011;6583;42.632;23.298;2023-03-01T11:51:59;8.40;;;5.67;;
13032;SDS011;6583;42.632;23.298;2023-03-01T11:54:41;7.67;;;5.90;;
13032;SDS011;6583;42.632;23.298;2023-03-01T11:57:18;8.87;;;6.77;;
13032;SDS011;6583;42.632;23.298;2023-03-01T12:00:11;8.93;;;6.90;;
13032;SDS011;6583;42.632;23.298;2023-03-01T12:02:55;8.43;;;6.53;;
13032;SDS011;6583;42.632;23.298;2023-03-01T12:05:49;9.97;;;6.83;;
13032;SDS011;6583;42.632;23.298;2023-03-01T12:08:32;8.53;;;6.50;;
13032;SDS011;6583;42.632;23.298;2023-03-01T12:11:06;7.67;;;5.80;;
13032;SDS011;6583;42.632;23.298;2023-03-01T12:14:04;7.40;;;5.93;;
13032;SDS011;6583;42.632;23.298;2023-03-01T12:19:53;8.00;;;5.97;;
13032;SDS011;6583;42.632;23.298;2023-03-01T12:22:30;6.50;;;5.37;;
13032;SDS011;6583;42.632;23.298;2023-03-01T12:25:17;6.73;;;5.13;;
13032;SDS011;6583;42.632;23.298;2023-03-01T12:30:50;8.10;;;5.57;;
13032;SDS011;6583;42.632;23.298;2023-03-01T12:33:34;6.77;;;5.60;;
13032;SDS011;6583;42.632;23.298;2023-03-01T12:36:26;6.20;;;5.07;;
13032;SDS011;6583;42.632;23.298;2023-03-01T12:39:06;8.57;;;7.27;;
13032;SDS011;6583;42.632;23.298;2023-03-01T12:41:47;8.20;;;5.80;;
13032;SDS011;6583;42.632;23.298;2023-03-01T12:44:33;6.90;;;6.10;;
13032;SDS011;6583;42.632;23.298;2023-03-01T12:47:13;5.60;;;4.90;;
13032;SDS011;6583;42.632;23.298;2023-03-01T12:49:51;6.97;;;5.83;;
13032;SDS011;6583;42.632;23.298;2023-03-01T12:52:22;6.47;;;4.63;;
13032;SDS011;6583;42.632;23.298;2023-03-01T12:54:55;7.00;;;5.80;;
13032;SDS011;6583;42.632;23.298;2023-03-01T12:57:29;6.03;;;5.43;;
13032;SDS011;6583;42.632;23.298;2023-03-01T13:00:11;7.33;;;5.33;;
13032;SDS011;6583;42.632;23.298;2023-03-01T13:02:52;6.47;;;5.20;;
13032;SDS011;6583;42.632;23.298;2023-03-01T13:05:28;6.47;;;5.60;;
13032;SDS011;6583;42.632;23.298;2023-03-01T13:08:05;7.27;;;5.27;;
13032;SDS011;6583;42.632;23.298;2023-03-01T13:10:43;5.53;;;4.87;;
13032;SDS011;6583;42.632;23.298;2023-03-01T13:13:15;5.07;;;4.57;;
13032;SDS011;6583;42.632;23.298;2023-03-01T13:15:47;5.33;;;4.50;;
13032;SDS011;6583;42.632;23.298;2023-03-01T13:18:32;6.03;;;4.70;;
13032;SDS011;6583;42.632;23.298;2023-03-01T13:20:59;6.83;;;5.40;;
13032;SDS011;6583;42.632;23.298;2023-03-01T13:23:29;6.77;;;5.53;;
13032;SDS011;6583;42.632;23.298;2023-03-01T13:26:06;8.67;;;6.13;;
13032;SDS011;6583;42.632;23.298;2023-03-01T13:28:39;6.20;;;5.23;;
13032;SDS011;6583;42.632;23.298;2023-03-01T13:34:47;6.83;;;5.50;;
13032;SDS011;6583;42.632;23.298;2023-03-01T13:37:20;7.17;;;5.80;;
13032;SDS011;6583;42.632;23.298;2023-03-01T13:39:54;8.37;;;6.10;;
13032;SDS011;6583;42.632;23.298;2023-03-01T13:42:34;6.70;;;5.40;;
13032;SDS011;6583;42.632;23.298;2023-03-01T13:45:14;6.87;;;5.47;;
13032;SDS011;6583;42.632;23.298;2023-03-01T13:47:44;8.20;;;5.80;;
13032;SDS011;6583;42.632;23.298;2023-03-01T13:50:18;6.63;;;4.97;;
13032;SDS011;6583;42.632;23.298;2023-03-01T13:52:48;6.10;;;5.20;;
13032;SDS011;6583;42.632;23.298;2023-03-01T13:55:21;7.67;;;5.97;;
13032;SDS011;6583;42.632;23.298;2023-03-01T13:57:52;8.00;;;6.27;;
13032;SDS011;6583;42.632;23.298;2023-03-01T14:00:29;6.77;;;5.43;;
13032;SDS011;6583;42.632;23.298;2023-03-01T14:03:08;8.43;;;5.60;;
13032;SDS011;6583;42.632;23.298;2023-03-01T14:05:38;8.97;;;6.10;;
13032;SDS011;6583;42.632;23.298;2023-03-01T14:08:14;8.93;;;5.90;;
13032;SDS011;6583;42.632;23.298;2023-03-01T14:10:49;7.67;;;6.10;;
13032;SDS011;6583;42.632;23.298;2023-03-01T14:13:38;5.80;;;4.60;;
13032;SDS011;6583;42.632;23.298;2023-03-01T14:16:20;7.83;;;5.90;;
13032;SDS011;6583;42.632;23.298;2023-03-01T14:19:00;7.60;;;5.70;;
13032;SDS011;6583;42.632;23.298;2023-03-01T14:21:40;7.87;;;6.30;;
13032;SDS011;6583;42.632;23.298;2023-03-01T14:24:13;7.00;;;6.00;;
13032;SDS011;6583;42.632;23.298;2023-03-01T14:26:43;6.53;;;5.27;;
13032;SDS011;6583;42.632;23.298;2023-03-01T14:29:23;11.37;;;6.40;;
13032;SDS011;6583;42.632;23.298;2023-03-01T14:31:50;8.50;;;6.17;;
13032;SDS011;6583;42.632;23.298;2023-03-01T14:34:19;7.80;;;5.57;;
13032;SDS011;6583;42.632;23.298;2023-03-01T14:36:49;9.73;;;5.27;;
13032;SDS011;6583;42.632;23.298;2023-03-01T14:39:17;7.50;;;5.03;;
13032;SDS011;6583;42.632;23.298;2023-03-01T14:41:46;5.90;;;5.23;;
13032;SDS011;6583;42.632;23.298;2023-03-01T14:44:14;6.03;;;4.70;;
13032;SDS011;6583;42.632;23.298;2023-03-01T14:46:45;6.10;;;4.63;;
13032;SDS011;6583;42.632;23.298;2023-03-01T14:49:13;11.57;;;8.47;;
13032;SDS011;6583;42.632;23.298;2023-03-01T14:51:42;10.57;;;7.87;;
13032;SDS011;6583;42.632;23.298;2023-03-01T14:54:20;8.30;;;5.83;;
13032;SDS011;6583;42.632;23.298;2023-03-01T14:56:50;9.57;;;7.27;;
13032;SDS011;6583;42.632;23.298;2023-03-01T14:59:18;8.10;;;6.17;;
13032;SDS011;6583;42.632;23.298;2023-03-01T15:01:47;8.17;;;6.40;;
13032;SDS011;6583;42.632;23.298;2023-03-01T15:04:15;7.80;;;6.73;;
13032;SDS011;6583;42.632;23.298;2023-03-01T15:06:42;8.00;;;6.27;;
13032;SDS011;6583;42.632;23.298;2023-03-01T15:09:12;8.17;;;5.70;;
13032;SDS011;6583;42.632;23.298;2023-03-01T15:11:43;9.53;;;6.33;;
13032;SDS011;6583;42.632;23.298;2023-03-01T15:14:26;8.70;;;6.40;;
13032;SDS011;6583;42.632;23.298;2023-03-01T15:16:55;11.43;;;6.33;;
13032;SDS011;6583;42.632;23.298;2023-03-01T15:19:23;9.63;;;5.73;;
13032;SDS011;6583;42.632;23.298;2023-03-01T15:21:54;9.97;;;6.70;;